createdAt,value
2018-08-23T00:00:45.941Z,11.23
2018-08-23T00:03:19.740Z,11.03
2018-08-23T00:05:53.547Z,12.00
2018-08-23T00:08:22.866Z,11.23
2018-08-23T00:10:52.067Z,12.63
2018-08-23T00:13:21.144Z,11.63
2018-08-23T00:15:49.817Z,15.33
2018-08-23T00:18:18.429Z,11.70
2018-08-23T00:20:47.027Z,14.60
2018-08-23T00:23:15.697Z,13.10
2018-08-23T00:25:44.274Z,12.03
2018-08-23T00:28:13.210Z,12.00
2018-08-23T00:30:44.047Z,12.87
2018-08-23T00:33:12.717Z,15.90
2018-08-23T00:35:41.297Z,12.00
2018-08-23T00:38:09.953Z,13.17
2018-08-23T00:40:40.410Z,14.00
2018-08-23T00:43:10.092Z,12.50
2018-08-23T00:45:38.655Z,12.80
2018-08-23T00:48:07.386Z,11.37
2018-08-23T00:50:53.963Z,13.53
2018-08-23T00:53:22.562Z,16.20
2018-08-23T00:56:02.884Z,13.40
2018-08-23T00:58:31.436Z,12.13
2018-08-23T01:01:03.146Z,11.73
2018-08-23T01:03:32.383Z,12.63
2018-08-23T01:06:00.962Z,13.03
2018-08-23T01:08:34.045Z,15.27
2018-08-23T01:11:03.585Z,16.90
2018-08-23T01:13:32.190Z,13.23
2018-08-23T01:16:01.031Z,14.23
2018-08-23T01:18:29.656Z,13.80
2018-08-23T01:20:58.290Z,13.50
2018-08-23T01:23:26.878Z,14.20
2018-08-23T01:25:55.494Z,13.73
2018-08-23T01:28:24.180Z,13.40
2018-08-23T01:30:52.796Z,17.47
2018-08-23T01:33:22.381Z,17.00
2018-08-23T01:35:51.828Z,13.50
2018-08-23T01:38:20.454Z,13.50
2018-08-23T01:40:49.509Z,14.63
2018-08-23T01:43:18.225Z,13.93
2018-08-23T01:45:46.831Z,12.40
2018-08-23T01:48:15.407Z,13.53
2018-08-23T01:50:44.005Z,14.80
2018-08-23T01:53:12.627Z,15.57
2018-08-23T01:55:41.205Z,14.83
2018-08-23T01:58:09.805Z,14.57
2018-08-23T02:00:38.382Z,14.57
2018-08-23T02:03:06.988Z,15.83
2018-08-23T02:05:37.866Z,19.50
2018-08-23T02:08:06.518Z,14.83
2018-08-23T02:10:35.141Z,14.57
2018-08-23T02:13:03.799Z,15.43
2018-08-23T02:15:40.686Z,15.20
2018-08-23T02:18:09.288Z,14.60
2018-08-23T02:20:37.883Z,14.10
2018-08-23T02:23:07.807Z,14.30
2018-08-23T02:25:36.376Z,15.80
2018-08-23T02:30:49.436Z,18.07
2018-08-23T02:33:18.203Z,14.63
2018-08-23T02:36:04.758Z,15.60
2018-08-23T02:38:34.021Z,15.90
2018-08-23T02:41:02.594Z,19.60
2018-08-23T02:43:31.191Z,16.20
2018-08-23T02:46:02.435Z,19.20
2018-08-23T02:48:31.029Z,14.97
2018-08-23T02:50:59.637Z,15.57
2018-08-23T02:53:35.463Z,21.03
2018-08-23T02:56:14.611Z,14.67
2018-08-23T02:58:57.133Z,15.43
2018-08-23T03:01:27.174Z,16.30
2018-08-23T03:04:08.326Z,15.60
2018-08-23T03:06:44.209Z,22.13
2018-08-23T03:09:12.863Z,15.80
2018-08-23T03:11:41.420Z,17.07
2018-08-23T03:14:10.055Z,16.73
2018-08-23T03:16:51.114Z,20.20
2018-08-23T03:19:19.762Z,19.57
2018-08-23T03:21:53.606Z,16.80
2018-08-23T03:24:22.227Z,16.03
2018-08-23T03:26:51.037Z,15.90
2018-08-23T03:29:19.903Z,17.17
2018-08-23T03:31:48.453Z,15.87
2018-08-23T03:34:17.168Z,18.37
2018-08-23T03:36:45.779Z,16.27
2018-08-23T03:39:14.382Z,16.90
2018-08-23T03:41:42.974Z,18.60
2018-08-23T03:44:24.666Z,21.23
2018-08-23T03:46:54.218Z,16.70
2018-08-23T03:49:33.094Z,16.30
2018-08-23T03:52:01.717Z,15.90
2018-08-23T03:54:31.201Z,16.80
2018-08-23T03:57:16.226Z,15.30
2018-08-23T03:59:47.842Z,22.43
2018-08-23T04:02:17.551Z,25.90
2018-08-23T04:04:56.742Z,19.00
2018-08-23T04:07:25.305Z,17.47
2018-08-23T04:09:53.862Z,15.73
2018-08-23T04:12:22.541Z,20.53
2018-08-23T04:14:51.152Z,20.40
2018-08-23T04:17:19.737Z,19.07
2018-08-23T04:19:49.533Z,16.90
2018-08-23T04:22:18.425Z,17.80
2018-08-23T04:24:55.032Z,26.70
2018-08-23T04:27:23.657Z,18.83
2018-08-23T04:29:52.248Z,19.20
2018-08-23T04:32:29.217Z,16.80
2018-08-23T04:35:00.542Z,20.57
2018-08-23T04:37:30.071Z,18.13
2018-08-23T04:40:03.867Z,22.53
2018-08-23T04:42:32.638Z,19.83
2018-08-23T04:45:26.610Z,16.67
2018-08-23T04:48:00.721Z,19.83
2018-08-23T04:50:29.307Z,20.33
2018-08-23T04:52:57.916Z,19.33
2018-08-23T04:55:27.115Z,19.13
2018-08-23T04:57:56.708Z,14.73
2018-08-23T05:00:25.834Z,18.63
2018-08-23T05:02:54.420Z,19.60
2018-08-23T05:05:23.071Z,15.90
2018-08-23T05:07:51.662Z,15.23
2018-08-23T05:10:20.331Z,14.93
2018-08-23T05:12:50.544Z,18.50
2018-08-23T05:15:19.184Z,15.30
2018-08-23T05:17:47.863Z,16.93
2018-08-23T05:20:16.558Z,18.60
2018-08-23T05:22:52.910Z,15.70
2018-08-23T05:25:23.377Z,17.63
2018-08-23T05:28:07.270Z,17.47
2018-08-23T05:30:35.897Z,19.83
2018-08-23T05:33:09.530Z,15.80
2018-08-23T05:35:38.092Z,16.90
2018-08-23T05:38:07.989Z,19.37
2018-08-23T05:40:42.268Z,14.80
2018-08-23T05:43:11.317Z,19.80
2018-08-23T05:45:45.158Z,16.30
2018-08-23T05:48:21.687Z,16.10
2018-08-23T05:50:50.368Z,26.07
2018-08-23T05:53:19.776Z,14.23
2018-08-23T05:55:53.481Z,22.47
2018-08-23T05:58:25.207Z,19.13
2018-08-23T06:00:53.936Z,23.30
2018-08-23T06:03:22.496Z,18.40
2018-08-23T06:05:51.594Z,19.07
2018-08-23T06:08:20.315Z,15.90
2018-08-23T06:10:50.800Z,15.73
2018-08-23T06:13:19.927Z,23.80
2018-08-23T06:15:54.772Z,28.07
2018-08-23T06:18:23.993Z,16.77
2018-08-23T06:20:52.633Z,13.00
2018-08-23T06:23:21.668Z,23.90
2018-08-23T06:25:50.627Z,18.83
2018-08-23T06:28:26.337Z,19.57
2018-08-23T06:30:58.936Z,15.33
2018-08-23T06:33:38.650Z,20.60
2018-08-23T06:36:08.330Z,20.60
2018-08-23T06:38:37.936Z,20.30
2018-08-23T06:41:07.701Z,20.13
2018-08-23T06:43:36.407Z,15.57
2018-08-23T06:46:05.555Z,21.33
2018-08-23T06:48:34.257Z,15.90
2018-08-23T06:51:03.907Z,14.90
2018-08-23T06:53:46.655Z,24.73
2018-08-23T06:56:16.561Z,14.43
2018-08-23T06:58:45.275Z,17.40
2018-08-23T07:01:30.126Z,18.10
2018-08-23T07:04:03.801Z,18.87
2018-08-23T07:06:32.894Z,19.13
2018-08-23T07:09:01.932Z,17.10
2018-08-23T07:11:30.675Z,18.90
2018-08-23T07:14:31.011Z,16.70
2018-08-23T07:17:09.531Z,22.30
2018-08-23T07:19:38.107Z,19.70
2018-08-23T07:22:06.926Z,15.80
2018-08-23T07:24:44.766Z,19.23
2018-08-23T07:27:14.758Z,17.27
2018-08-23T07:29:54.872Z,18.60
2018-08-23T07:32:24.868Z,16.63
2018-08-23T07:35:06.105Z,13.53
2018-08-23T07:37:36.602Z,18.63
2018-08-23T07:40:11.348Z,17.17
2018-08-23T07:42:41.230Z,17.53
2018-08-23T07:45:10.473Z,18.70
2018-08-23T07:47:40.773Z,15.60
2018-08-23T07:50:09.400Z,12.67
2018-08-23T07:52:38.825Z,15.20
2018-08-23T07:55:07.940Z,17.70
2018-08-23T07:57:37.259Z,17.70
2018-08-23T08:00:25.593Z,16.00
2018-08-23T08:02:54.374Z,13.70
2018-08-23T08:05:25.314Z,17.03
2018-08-23T08:07:53.934Z,15.03
2018-08-23T08:10:22.561Z,19.87
2018-08-23T08:12:52.037Z,18.30
2018-08-23T08:15:20.789Z,10.83
2018-08-23T08:17:49.357Z,16.40
2018-08-23T08:20:18.018Z,14.70
2018-08-23T08:22:46.635Z,17.07
2018-08-23T08:25:17.142Z,10.83
2018-08-23T08:27:45.958Z,14.70
2018-08-23T08:30:15.849Z,19.27
2018-08-23T08:32:44.945Z,12.70
2018-08-23T08:35:16.430Z,20.67
2018-08-23T08:37:46.112Z,15.67
2018-08-23T08:40:18.865Z,10.97
2018-08-23T08:42:48.035Z,15.47
2018-08-23T08:45:16.687Z,12.47
2018-08-23T08:47:46.430Z,18.43
2018-08-23T08:50:15.417Z,12.57
2018-08-23T08:52:44.066Z,23.77
2018-08-23T08:55:14.134Z,17.00
2018-08-23T08:57:44.922Z,12.90
2018-08-23T09:00:13.569Z,14.57
2018-08-23T09:02:42.307Z,11.50
2018-08-23T09:05:11.967Z,17.67
2018-08-23T09:07:42.627Z,13.17
2018-08-23T09:10:11.244Z,13.57
2018-08-23T09:12:44.945Z,23.00
2018-08-23T09:15:13.539Z,17.07
2018-08-23T09:17:44.340Z,15.60
2018-08-23T09:20:15.283Z,19.90
2018-08-23T09:22:49.046Z,17.57
2018-08-23T09:25:26.591Z,15.93
2018-08-23T09:27:55.229Z,12.00
2018-08-23T09:30:26.030Z,15.73
2018-08-23T09:32:55.005Z,12.13
2018-08-23T09:35:30.981Z,17.67
2018-08-23T09:38:03.448Z,11.10
2018-08-23T09:40:32.044Z,33.60
2018-08-23T09:43:03.198Z,14.70
2018-08-23T09:45:33.192Z,10.50
2018-08-23T09:48:01.849Z,11.40
2018-08-23T09:50:30.481Z,14.23
2018-08-23T09:52:59.161Z,11.43
2018-08-23T09:55:29.718Z,20.70
2018-08-23T09:57:58.838Z,13.67
2018-08-23T10:00:32.540Z,15.63
2018-08-23T10:03:06.235Z,10.70
2018-08-23T10:05:44.294Z,20.13
2018-08-23T10:08:18.010Z,13.03
2018-08-23T10:12:54.485Z,16.50
2018-08-23T10:15:28.416Z,13.03
2018-08-23T10:18:02.112Z,9.80
2018-08-23T10:20:35.960Z,22.37
2018-08-23T10:23:09.690Z,18.43
2018-08-23T10:25:42.070Z,11.17
2018-08-23T10:28:11.986Z,10.60
2018-08-23T10:30:40.804Z,10.00
2018-08-23T10:33:09.438Z,29.00
2018-08-23T10:35:38.655Z,16.77
2018-08-23T10:38:08.012Z,10.23
2018-08-23T10:40:36.663Z,11.20
2018-08-23T10:43:05.335Z,14.60
2018-08-23T10:45:33.948Z,10.33
2018-08-23T10:48:07.590Z,14.93
2018-08-23T10:50:41.573Z,9.47
2018-08-23T10:53:10.272Z,9.03
2018-08-23T10:55:38.910Z,10.67
2018-08-23T10:58:07.614Z,9.70
2018-08-23T11:00:36.284Z,8.80
2018-08-23T11:03:04.956Z,15.60
2018-08-23T11:05:33.603Z,13.17
2018-08-23T11:08:07.284Z,10.70
2018-08-23T11:10:41.030Z,9.20
2018-08-23T11:13:14.934Z,9.80
2018-08-23T11:15:43.597Z,10.83
2018-08-23T11:18:17.280Z,10.90
2018-08-23T11:20:47.994Z,13.43
2018-08-23T11:23:18.699Z,13.27
2018-08-23T11:25:47.352Z,12.80
2018-08-23T11:28:21.525Z,13.73
2018-08-23T11:30:50.724Z,15.07
2018-08-23T11:33:19.343Z,13.33
2018-08-23T11:35:47.967Z,15.40
2018-08-23T11:38:16.609Z,12.93
2018-08-23T11:40:45.215Z,11.63
2018-08-23T11:43:13.839Z,8.73
2018-08-23T11:45:42.442Z,11.20
2018-08-23T11:48:11.072Z,8.93
2018-08-23T11:50:39.776Z,11.33
2018-08-23T11:53:09.120Z,10.50
2018-08-23T11:55:37.885Z,16.63
2018-08-23T11:58:06.588Z,13.63
2018-08-23T12:00:35.986Z,18.73
2018-08-23T12:03:04.818Z,9.13
2018-08-23T12:05:33.594Z,10.63
2018-08-23T12:08:02.279Z,10.90
2018-08-23T12:10:32.011Z,8.50
2018-08-23T12:13:01.644Z,11.73
2018-08-23T12:15:31.880Z,9.20
2018-08-23T12:18:01.479Z,13.93
2018-08-23T12:20:30.297Z,13.93
2018-08-23T12:22:59.173Z,10.83
2018-08-23T12:25:27.909Z,10.23
2018-08-23T12:28:00.347Z,14.60
2018-08-23T12:30:30.274Z,12.83
2018-08-23T12:32:59.012Z,8.37
2018-08-23T12:35:27.874Z,11.63
2018-08-23T12:38:02.492Z,11.67
2018-08-23T12:40:37.152Z,8.60
2018-08-23T12:43:09.177Z,12.30
2018-08-23T12:45:41.085Z,10.70
2018-08-23T12:48:11.242Z,8.27
2018-08-23T12:50:40.468Z,12.43
2018-08-23T12:53:09.230Z,9.60
2018-08-23T12:55:38.030Z,7.93
2018-08-23T12:58:10.500Z,8.90
2018-08-23T13:00:40.266Z,7.43
2018-08-23T13:03:09.449Z,8.10
2018-08-23T13:05:38.561Z,8.13
2018-08-23T13:08:07.607Z,8.50
2018-08-23T13:10:36.864Z,14.50
2018-08-23T13:13:05.700Z,8.23
2018-08-23T13:15:34.461Z,8.30
2018-08-23T13:18:03.624Z,8.23
2018-08-23T13:20:32.516Z,7.23
2018-08-23T13:23:01.239Z,7.93
2018-08-23T13:25:29.971Z,10.50
2018-08-23T13:27:58.774Z,12.43
2018-08-23T13:30:27.513Z,14.63
2018-08-23T13:32:56.269Z,10.23
2018-08-23T13:35:25.756Z,10.20
2018-08-23T13:37:54.513Z,13.53
2018-08-23T13:40:23.229Z,11.20
2018-08-23T13:42:51.914Z,9.78
2018-08-23T13:45:20.624Z,6.90
2018-08-23T13:47:49.269Z,8.30
2018-08-23T13:50:17.905Z,8.30
2018-08-23T13:52:46.611Z,10.65
2018-08-23T13:55:15.391Z,7.37
2018-08-23T13:57:44.211Z,6.72
2018-08-23T14:00:18.334Z,7.67
2018-08-23T14:02:47.295Z,7.15
2018-08-23T14:05:16.312Z,8.25
2018-08-23T14:07:45.375Z,7.65
2018-08-23T14:10:14.604Z,6.55
2018-08-23T14:12:43.532Z,10.30
2018-08-23T14:15:17.620Z,7.60
2018-08-23T14:17:46.307Z,6.53
2018-08-23T14:20:14.983Z,5.75
2018-08-23T14:22:43.718Z,9.05
2018-08-23T14:25:14.982Z,7.65
2018-08-23T14:27:44.670Z,5.65
2018-08-23T14:30:13.362Z,5.70
2018-08-23T14:32:42.171Z,5.33
2018-08-23T14:37:47.509Z,9.15
2018-08-23T14:40:16.438Z,6.28
2018-08-23T14:42:45.166Z,5.45
2018-08-23T14:45:18.075Z,6.25
2018-08-23T14:48:18.831Z,5.28
2018-08-23T14:50:52.810Z,6.10
2018-08-23T14:53:26.840Z,5.45
2018-08-23T14:56:01.175Z,4.92
2018-08-23T14:58:30.439Z,7.00
2018-08-23T15:00:59.771Z,5.10
2018-08-23T15:03:29.864Z,5.15
2018-08-23T15:05:58.630Z,7.47
2018-08-23T15:08:27.389Z,5.70
2018-08-23T15:10:56.173Z,5.40
2018-08-23T15:13:24.856Z,5.20
2018-08-23T15:15:54.099Z,5.65
2018-08-23T15:18:23.375Z,5.53
2018-08-23T15:20:53.298Z,5.62
2018-08-23T15:23:22.054Z,5.78
2018-08-23T15:25:50.790Z,5.08
2018-08-23T15:28:19.399Z,5.33
2018-08-23T15:30:48.044Z,5.47
2018-08-23T15:33:16.666Z,5.30
2018-08-23T15:35:45.277Z,5.70
2018-08-23T15:38:13.889Z,6.92
2018-08-23T15:40:42.445Z,5.53
2018-08-23T15:43:11.096Z,10.32
2018-08-23T15:45:39.718Z,5.92
2018-08-23T15:48:08.403Z,4.95
2018-08-23T15:50:37.078Z,5.17
2018-08-23T15:53:05.955Z,4.85
2018-08-23T15:55:34.895Z,5.50
2018-08-23T15:58:03.393Z,4.22
2018-08-23T16:00:41.028Z,4.87
2018-08-23T16:03:09.882Z,4.80
2018-08-23T16:05:39.559Z,5.22
2018-08-23T16:08:08.236Z,5.53
2018-08-23T16:10:36.889Z,5.67
2018-08-23T16:13:05.711Z,5.33
2018-08-23T16:15:34.348Z,4.92
2018-08-23T16:18:08.421Z,7.45
2018-08-23T16:20:42.254Z,5.35
2018-08-23T16:23:10.903Z,5.37
2018-08-23T16:25:43.689Z,5.72
2018-08-23T16:28:12.550Z,6.17
2018-08-23T16:30:42.442Z,6.70
2018-08-23T16:33:11.626Z,5.47
2018-08-23T16:35:40.579Z,5.40
2018-08-23T16:38:12.466Z,6.10
2018-08-23T16:40:41.085Z,6.05
2018-08-23T16:43:09.954Z,6.62
2018-08-23T16:45:38.567Z,6.20
2018-08-23T16:48:07.288Z,6.10
2018-08-23T16:50:36.387Z,5.95
2018-08-23T16:53:05.047Z,6.15
2018-08-23T16:55:33.646Z,6.90
2018-08-23T16:58:02.255Z,7.25
2018-08-23T17:00:30.939Z,6.60
2018-08-23T17:02:59.574Z,5.78
2018-08-23T17:05:28.170Z,8.18
2018-08-23T17:07:56.766Z,9.35
2018-08-23T17:10:25.788Z,7.97
2018-08-23T17:12:54.441Z,9.60
2018-08-23T17:15:23.143Z,6.53
2018-08-23T17:17:55.621Z,6.78
2018-08-23T17:20:24.260Z,8.00
2018-08-23T17:22:52.865Z,10.47
2018-08-23T17:25:21.567Z,13.70
2018-08-23T17:27:50.149Z,8.80
2018-08-23T17:30:19.411Z,9.77
2018-08-23T17:32:48.494Z,7.93
2018-08-23T17:35:17.120Z,8.53
2018-08-23T17:37:45.735Z,8.50
2018-08-23T17:40:14.436Z,8.87
2018-08-23T17:42:43.562Z,9.20
2018-08-23T17:45:13.402Z,9.00
2018-08-23T17:47:41.967Z,9.87
2018-08-23T17:50:10.649Z,10.17
2018-08-23T17:52:39.282Z,9.37
2018-08-23T17:55:07.906Z,11.13
2018-08-23T17:57:36.488Z,12.70
2018-08-23T18:00:05.642Z,9.33
2018-08-23T18:02:34.319Z,9.60
2018-08-23T18:05:03.130Z,9.37
2018-08-23T18:07:31.822Z,9.20
2018-08-23T18:10:00.429Z,10.40
2018-08-23T18:12:29.055Z,10.30
2018-08-23T18:14:57.689Z,11.17
2018-08-23T18:17:26.330Z,9.90
2018-08-23T18:19:54.930Z,10.10
2018-08-23T18:22:23.692Z,10.90
2018-08-23T18:24:52.296Z,18.10
2018-08-23T18:27:20.929Z,13.70
2018-08-23T18:29:49.536Z,14.07
2018-08-23T18:32:18.319Z,10.27
2018-08-23T18:34:46.788Z,12.07
2018-08-23T18:37:15.393Z,11.03
2018-08-23T18:39:44.037Z,9.50
2018-08-23T18:42:12.812Z,10.87
2018-08-23T18:44:41.470Z,12.53
2018-08-23T18:47:10.558Z,10.03
2018-08-23T18:49:39.186Z,10.47
2018-08-23T18:52:07.843Z,11.40
2018-08-23T18:54:36.448Z,18.57
2018-08-23T18:57:05.224Z,10.17
2018-08-23T18:59:33.861Z,10.83
2018-08-23T19:02:02.908Z,13.57
2018-08-23T19:04:31.558Z,12.33
2018-08-23T19:07:00.232Z,11.20
2018-08-23T19:09:28.914Z,13.80
2018-08-23T19:11:58.053Z,11.47
2018-08-23T19:14:26.643Z,12.50
2018-08-23T19:17:00.582Z,13.30
2018-08-23T19:19:29.211Z,16.70
2018-08-23T19:21:57.862Z,16.13
2018-08-23T19:24:31.654Z,13.10
2018-08-23T19:27:00.324Z,11.93
2018-08-23T19:29:29.005Z,11.30
2018-08-23T19:31:57.671Z,12.67
2018-08-23T19:34:26.449Z,13.20
2018-08-23T19:36:55.180Z,11.10
2018-08-23T19:39:23.894Z,12.47
2018-08-23T19:41:52.554Z,15.10
2018-08-23T19:44:21.189Z,20.73
2018-08-23T19:46:54.994Z,11.07
2018-08-23T19:49:58.413Z,22.90
2018-08-23T19:52:27.206Z,15.13
2018-08-23T19:54:55.866Z,10.97
2018-08-23T19:57:24.521Z,11.07
2018-08-23T19:59:53.146Z,15.13
2018-08-23T20:02:21.753Z,12.33
2018-08-23T20:04:50.462Z,13.50
2018-08-23T20:07:20.831Z,18.23
2018-08-23T20:09:49.533Z,13.27
2018-08-23T20:12:18.340Z,11.37
2018-08-23T20:14:48.099Z,10.87
2018-08-23T20:17:17.447Z,12.37
2018-08-23T20:19:46.116Z,12.67
2018-08-23T20:22:14.905Z,15.10
2018-08-23T20:24:45.128Z,11.50
2018-08-23T20:27:14.268Z,13.67
2018-08-23T20:29:42.992Z,11.83
2018-08-23T20:32:12.079Z,17.70
2018-08-23T20:34:40.798Z,12.40
2018-08-23T20:37:09.512Z,12.33
2018-08-23T20:39:38.204Z,12.27
2018-08-23T20:42:07.432Z,14.60
2018-08-23T20:44:36.114Z,14.23
2018-08-23T20:47:04.889Z,13.33
2018-08-23T20:49:33.513Z,11.83
2018-08-23T20:52:02.295Z,16.30
2018-08-23T20:54:30.988Z,18.47
2018-08-23T20:56:59.685Z,17.43
2018-08-23T20:59:28.326Z,14.37
2018-08-23T21:01:57.015Z,12.90
2018-08-23T21:04:26.173Z,15.03
2018-08-23T21:06:54.876Z,17.53
2018-08-23T21:09:23.669Z,11.93
2018-08-23T21:11:52.479Z,11.07
2018-08-23T21:14:21.207Z,13.00
2018-08-23T21:16:51.428Z,13.73
2018-08-23T21:19:20.162Z,11.03
2018-08-23T21:21:48.973Z,11.03
2018-08-23T21:24:17.763Z,14.27
2018-08-23T21:26:46.547Z,12.07
2018-08-23T21:29:15.281Z,12.37
2018-08-23T21:31:43.962Z,13.60
2018-08-23T21:34:12.669Z,11.47
2018-08-23T21:36:41.323Z,11.80
2018-08-23T21:39:10.437Z,11.83
2018-08-23T21:41:39.165Z,12.33
2018-08-23T21:44:07.755Z,11.20
2018-08-23T21:46:36.483Z,13.17
2018-08-23T21:49:05.206Z,12.90
2018-08-23T21:51:33.826Z,13.27
2018-08-23T21:54:02.497Z,14.00
2018-08-23T21:56:31.142Z,13.17
2018-08-23T21:58:59.728Z,13.00
2018-08-23T22:01:28.350Z,13.33
2018-08-23T22:03:56.981Z,16.90
2018-08-23T22:06:25.579Z,17.07
2018-08-23T22:08:54.220Z,13.73
2018-08-23T22:11:22.853Z,12.50
2018-08-23T22:13:51.468Z,12.53
2018-08-23T22:16:20.097Z,15.07
2018-08-23T22:18:48.837Z,13.67
2018-08-23T22:21:17.431Z,13.47
2018-08-23T22:23:46.077Z,13.50
2018-08-23T22:26:14.753Z,12.87
2018-08-23T22:28:43.392Z,13.57
2018-08-23T22:31:12.052Z,13.87
2018-08-23T22:33:40.939Z,13.07
2018-08-23T22:36:09.622Z,13.00
2018-08-23T22:38:38.263Z,14.30
2018-08-23T22:41:06.905Z,13.57
2018-08-23T22:43:35.513Z,17.73
2018-08-23T22:48:43.272Z,16.00
2018-08-23T22:51:11.921Z,13.77
2018-08-23T22:53:40.607Z,15.23
2018-08-23T22:56:09.212Z,15.30
2018-08-23T22:58:37.903Z,15.20
2018-08-23T23:01:06.547Z,14.20
2018-08-23T23:03:40.370Z,18.97
2018-08-23T23:06:09.026Z,14.70
2018-08-23T23:08:37.622Z,15.53
2018-08-23T23:11:06.509Z,15.67
2018-08-23T23:13:35.133Z,14.77
2018-08-23T23:16:03.730Z,15.80
2018-08-23T23:18:32.340Z,16.73
2018-08-23T23:21:00.956Z,14.93
2018-08-23T23:23:29.545Z,15.20
2018-08-23T23:25:58.171Z,14.93
2018-08-23T23:28:26.806Z,14.77
2018-08-23T23:30:55.464Z,15.10
2018-08-23T23:33:24.071Z,15.20
2018-08-23T23:35:52.689Z,14.87
2018-08-23T23:38:21.333Z,15.70
2018-08-23T23:40:49.913Z,14.37
2018-08-23T23:43:18.505Z,16.40
2018-08-23T23:45:48.005Z,14.70
2018-08-23T23:48:16.650Z,15.83
2018-08-23T23:50:45.367Z,15.40
2018-08-23T23:53:14.022Z,14.73
2018-08-23T23:55:42.637Z,13.17
2018-08-23T23:58:11.364Z,14.87
